sensor_id;sensor_type;location;lat;lon;timestamp;temperature;humidity
17252;DHT22;8742;51.716;8.790;2022-08-19T00:00:42;20.40;99.90
17252;DHT22;8742;51.716;8.790;2022-08-19T00:03:09;20.40;99.90
17252;DHT22;8742;51.716;8.790;2022-08-19T00:05:36;20.40;99.90
17252;DHT22;8742;51.716;8.790;2022-08-19T00:08:03;20.40;99.90
17252;DHT22;8742;51.716;8.790;2022-08-19T00:10:30;20.30;99.90
17252;DHT22;8742;51.716;8.790;2022-08-19T00:12:57;20.30;99.90
17252;DHT22;8742;51.716;8.790;2022-08-19T00:15:24;20.30;99.90
17252;DHT22;8742;51.716;8.790;2022-08-19T00:17:54;20.30;99.90
17252;DHT22;8742;51.716;8.790;2022-08-19T00:20:22;20.30;99.90
17252;DHT22;8742;51.716;8.790;2022-08-19T00:22:49;20.30;99.90
17252;DHT22;8742;51.716;8.790;2022-08-19T00:25:17;20.30;99.90
17252;DHT22;8742;51.716;8.790;2022-08-19T00:27:44;20.20;99.90
17252;DHT22;8742;51.716;8.790;2022-08-19T00:30:12;20.20;99.90
17252;DHT22;8742;51.716;8.790;2022-08-19T00:32:39;20.20;99.90
17252;DHT22;8742;51.716;8.790;2022-08-19T00:35:08;20.10;99.90
17252;DHT22;8742;51.716;8.790;2022-08-19T00:37:36;20.20;99.90
17252;DHT22;8742;51.716;8.790;2022-08-19T00:40:05;20.10;99.90
17252;DHT22;8742;51.716;8.790;2022-08-19T00:42:32;20.10;99.90
17252;DHT22;8742;51.716;8.790;2022-08-19T00:44:59;20.10;99.90
17252;DHT22;8742;51.716;8.790;2022-08-19T00:47:26;20.10;99.90
17252;DHT22;8742;51.716;8.790;2022-08-19T00:49:55;20.10;99.90
17252;DHT22;8742;51.716;8.790;2022-08-19T00:52:27;20.10;99.90
17252;DHT22;8742;51.716;8.790;2022-08-19T00:54:56;20.00;99.90
17252;DHT22;8742;51.716;8.790;2022-08-19T00:57:27;20.00;99.90
17252;DHT22;8742;51.716;8.790;2022-08-19T00:59:57;20.00;99.90
17252;DHT22;8742;51.716;8.790;2022-08-19T01:02:25;19.90;99.90
17252;DHT22;8742;51.716;8.790;2022-08-19T01:04:53;19.90;99.90
17252;DHT22;8742;51.716;8.790;2022-08-19T01:07:20;19.80;99.90
17252;DHT22;8742;51.716;8.790;2022-08-19T01:12:17;19.70;99.90
17252;DHT22;8742;51.716;8.790;2022-08-19T01:14:45;19.70;99.90
17252;DHT22;8742;51.716;8.790;2022-08-19T01:17:12;19.60;99.90
17252;DHT22;8742;51.716;8.790;2022-08-19T01:19:41;19.60;99.90
17252;DHT22;8742;51.716;8.790;2022-08-19T01:22:15;19.50;99.90
17252;DHT22;8742;51.716;8.790;2022-08-19T01:24:44;19.50;99.90
17252;DHT22;8742;51.716;8.790;2022-08-19T01:27:11;19.50;99.90
17252;DHT22;8742;51.716;8.790;2022-08-19T01:29:39;19.40;99.90
17252;DHT22;8742;51.716;8.790;2022-08-19T01:32:07;19.40;99.90
17252;DHT22;8742;51.716;8.790;2022-08-19T01:34:35;19.40;99.90
17252;DHT22;8742;51.716;8.790;2022-08-19T01:37:07;19.40;99.90
17252;DHT22;8742;51.716;8.790;2022-08-19T01:39:37;19.40;99.90
17252;DHT22;8742;51.716;8.790;2022-08-19T01:42:07;19.30;99.90
17252;DHT22;8742;51.716;8.790;2022-08-19T01:44:35;19.30;99.90
17252;DHT22;8742;51.716;8.790;2022-08-19T01:47:03;19.30;99.90
17252;DHT22;8742;51.716;8.790;2022-08-19T01:49:30;19.30;99.90
17252;DHT22;8742;51.716;8.790;2022-08-19T01:51:59;19.30;99.90
17252;DHT22;8742;51.716;8.790;2022-08-19T01:54:27;19.30;99.90
17252;DHT22;8742;51.716;8.790;2022-08-19T01:56:58;19.30;99.90
17252;DHT22;8742;51.716;8.790;2022-08-19T01:59:28;19.30;99.90
17252;DHT22;8742;51.716;8.790;2022-08-19T02:01:55;19.20;99.90
17252;DHT22;8742;51.716;8.790;2022-08-19T02:04:22;19.20;99.90
17252;DHT22;8742;51.716;8.790;2022-08-19T02:06:51;19.20;99.90
17252;DHT22;8742;51.716;8.790;2022-08-19T02:09:17;19.10;99.90
17252;DHT22;8742;51.716;8.790;2022-08-19T02:11:44;19.10;99.90
17252;DHT22;8742;51.716;8.790;2022-08-19T02:14:11;19.10;99.90
17252;DHT22;8742;51.716;8.790;2022-08-19T02:16:40;19.10;99.90
17252;DHT22;8742;51.716;8.790;2022-08-19T02:19:07;19.10;99.90
17252;DHT22;8742;51.716;8.790;2022-08-19T02:21:35;19.00;99.90
17252;DHT22;8742;51.716;8.790;2022-08-19T02:24:02;19.10;99.90
17252;DHT22;8742;51.716;8.790;2022-08-19T02:26:29;19.00;99.90
17252;DHT22;8742;51.716;8.790;2022-08-19T02:28:56;19.00;99.90
17252;DHT22;8742;51.716;8.790;2022-08-19T02:31:24;19.00;99.90
17252;DHT22;8742;51.716;8.790;2022-08-19T02:33:55;19.00;99.90
17252;DHT22;8742;51.716;8.790;2022-08-19T02:36:23;19.00;99.90
17252;DHT22;8742;51.716;8.790;2022-08-19T02:38:50;19.00;99.90
17252;DHT22;8742;51.716;8.790;2022-08-19T02:41:18;19.00;99.90
17252;DHT22;8742;51.716;8.790;2022-08-19T02:43:45;19.00;99.90
17252;DHT22;8742;51.716;8.790;2022-08-19T02:46:19;19.00;99.90
17252;DHT22;8742;51.716;8.790;2022-08-19T02:48:47;19.00;99.90
17252;DHT22;8742;51.716;8.790;2022-08-19T02:51:18;19.00;99.90
17252;DHT22;8742;51.716;8.790;2022-08-19T02:53:45;18.90;99.90
17252;DHT22;8742;51.716;8.790;2022-08-19T02:56:12;18.90;99.90
17252;DHT22;8742;51.716;8.790;2022-08-19T02:58:39;18.90;99.90
17252;DHT22;8742;51.716;8.790;2022-08-19T03:01:07;18.90;99.90
17252;DHT22;8742;51.716;8.790;2022-08-19T03:03:34;18.90;99.90
17252;DHT22;8742;51.716;8.790;2022-08-19T03:06:06;18.90;99.90
17252;DHT22;8742;51.716;8.790;2022-08-19T03:08:35;18.90;99.90
17252;DHT22;8742;51.716;8.790;2022-08-19T03:11:02;18.80;99.90
17252;DHT22;8742;51.716;8.790;2022-08-19T03:13:29;18.80;99.90
17252;DHT22;8742;51.716;8.790;2022-08-19T03:15:56;18.80;99.90
17252;DHT22;8742;51.716;8.790;2022-08-19T03:18:23;18.80;99.90
17252;DHT22;8742;51.716;8.790;2022-08-19T03:20:51;18.70;99.90
17252;DHT22;8742;51.716;8.790;2022-08-19T03:25:52;18.60;99.90
17252;DHT22;8742;51.716;8.790;2022-08-19T03:30:58;18.60;99.90
17252;DHT22;8742;51.716;8.790;2022-08-19T03:33:26;18.50;99.90
17252;DHT22;8742;51.716;8.790;2022-08-19T03:36:04;18.50;99.90
17252;DHT22;8742;51.716;8.790;2022-08-19T03:38:32;18.50;99.90
17252;DHT22;8742;51.716;8.790;2022-08-19T03:41:05;18.40;99.90
17252;DHT22;8742;51.716;8.790;2022-08-19T03:43:34;18.40;99.90
17252;DHT22;8742;51.716;8.790;2022-08-19T03:46:04;18.40;99.90
17252;DHT22;8742;51.716;8.790;2022-08-19T03:48:31;18.40;99.90
17252;DHT22;8742;51.716;8.790;2022-08-19T03:50:59;18.40;99.90
17252;DHT22;8742;51.716;8.790;2022-08-19T03:53:26;18.30;99.90
17252;DHT22;8742;51.716;8.790;2022-08-19T03:55:53;18.30;99.90
17252;DHT22;8742;51.716;8.790;2022-08-19T03:58:22;18.30;99.90
17252;DHT22;8742;51.716;8.790;2022-08-19T04:00:49;18.30;99.90
17252;DHT22;8742;51.716;8.790;2022-08-19T04:03:16;18.30;99.90
17252;DHT22;8742;51.716;8.790;2022-08-19T04:05:44;18.30;99.90
17252;DHT22;8742;51.716;8.790;2022-08-19T04:08:13;18.20;99.90
17252;DHT22;8742;51.716;8.790;2022-08-19T04:10:46;18.20;99.90
17252;DHT22;8742;51.716;8.790;2022-08-19T04:13:13;18.20;99.90
17252;DHT22;8742;51.716;8.790;2022-08-19T04:15:42;18.20;99.90
17252;DHT22;8742;51.716;8.790;2022-08-19T04:18:10;18.20;99.90
17252;DHT22;8742;51.716;8.790;2022-08-19T04:20:41;18.20;99.90
17252;DHT22;8742;51.716;8.790;2022-08-19T04:23:09;18.20;99.90
17252;DHT22;8742;51.716;8.790;2022-08-19T04:25:37;18.20;99.90
17252;DHT22;8742;51.716;8.790;2022-08-19T04:28:04;18.20;99.90
17252;DHT22;8742;51.716;8.790;2022-08-19T04:30:37;18.20;99.90
17252;DHT22;8742;51.716;8.790;2022-08-19T04:33:06;18.20;99.90
17252;DHT22;8742;51.716;8.790;2022-08-19T04:35:38;18.20;99.90
17252;DHT22;8742;51.716;8.790;2022-08-19T04:38:05;18.20;99.90
17252;DHT22;8742;51.716;8.790;2022-08-19T04:40:33;18.20;99.90
17252;DHT22;8742;51.716;8.790;2022-08-19T04:43:17;18.20;99.90
17252;DHT22;8742;51.716;8.790;2022-08-19T04:45:46;18.10;99.90
17252;DHT22;8742;51.716;8.790;2022-08-19T04:48:15;18.10;99.90
17252;DHT22;8742;51.716;8.790;2022-08-19T04:50:43;18.10;99.90
17252;DHT22;8742;51.716;8.790;2022-08-19T04:53:10;18.10;99.90
17252;DHT22;8742;51.716;8.790;2022-08-19T04:55:41;18.10;99.90
17252;DHT22;8742;51.716;8.790;2022-08-19T04:58:08;18.10;99.90
17252;DHT22;8742;51.716;8.790;2022-08-19T05:00:37;18.20;99.90
17252;DHT22;8742;51.716;8.790;2022-08-19T05:03:05;18.20;99.90
17252;DHT22;8742;51.716;8.790;2022-08-19T05:05:37;18.20;99.90
17252;DHT22;8742;51.716;8.790;2022-08-19T05:08:04;18.20;99.90
17252;DHT22;8742;51.716;8.790;2022-08-19T05:10:31;18.20;99.90
17252;DHT22;8742;51.716;8.790;2022-08-19T05:12:58;18.20;99.90
17252;DHT22;8742;51.716;8.790;2022-08-19T05:15:25;18.20;99.90
17252;DHT22;8742;51.716;8.790;2022-08-19T05:17:52;18.20;99.90
17252;DHT22;8742;51.716;8.790;2022-08-19T05:20:39;18.20;99.90
17252;DHT22;8742;51.716;8.790;2022-08-19T05:23:23;18.30;99.90
17252;DHT22;8742;51.716;8.790;2022-08-19T05:25:51;18.30;99.90
17252;DHT22;8742;51.716;8.790;2022-08-19T05:28:18;18.30;99.90
17252;DHT22;8742;51.716;8.790;2022-08-19T05:30:45;18.30;99.90
17252;DHT22;8742;51.716;8.790;2022-08-19T05:33:13;18.40;99.90
17252;DHT22;8742;51.716;8.790;2022-08-19T05:35:41;18.30;99.90
17252;DHT22;8742;51.716;8.790;2022-08-19T05:38:10;18.40;99.90
17252;DHT22;8742;51.716;8.790;2022-08-19T05:40:38;18.40;99.90
17252;DHT22;8742;51.716;8.790;2022-08-19T05:43:06;18.50;99.90
17252;DHT22;8742;51.716;8.790;2022-08-19T05:45:38;18.50;99.90
17252;DHT22;8742;51.716;8.790;2022-08-19T05:48:05;18.60;99.90
17252;DHT22;8742;51.716;8.790;2022-08-19T05:50:32;18.60;99.90
17252;DHT22;8742;51.716;8.790;2022-08-19T05:53:00;18.60;99.90
17252;DHT22;8742;51.716;8.790;2022-08-19T05:55:27;18.70;99.90
17252;DHT22;8742;51.716;8.790;2022-08-19T05:57:54;18.80;99.90
17252;DHT22;8742;51.716;8.790;2022-08-19T06:00:21;18.80;99.90
17252;DHT22;8742;51.716;8.790;2022-08-19T06:02:48;18.80;99.90
17252;DHT22;8742;51.716;8.790;2022-08-19T06:05:16;18.90;99.90
17252;DHT22;8742;51.716;8.790;2022-08-19T06:07:43;18.90;99.90
17252;DHT22;8742;51.716;8.790;2022-08-19T06:10:11;19.00;99.90
17252;DHT22;8742;51.716;8.790;2022-08-19T06:12:39;19.00;99.90
17252;DHT22;8742;51.716;8.790;2022-08-19T06:15:08;19.00;99.90
17252;DHT22;8742;51.716;8.790;2022-08-19T06:17:36;19.00;99.90
17252;DHT22;8742;51.716;8.790;2022-08-19T06:20:03;19.10;99.90
17252;DHT22;8742;51.716;8.790;2022-08-19T06:22:30;19.10;99.90
17252;DHT22;8742;51.716;8.790;2022-08-19T06:24:57;19.20;99.90
17252;DHT22;8742;51.716;8.790;2022-08-19T06:27:26;19.20;99.90
17252;DHT22;8742;51.716;8.790;2022-08-19T06:29:55;19.30;99.90
17252;DHT22;8742;51.716;8.790;2022-08-19T06:32:21;19.20;99.90
17252;DHT22;8742;51.716;8.790;2022-08-19T06:34:49;19.30;99.90
17252;DHT22;8742;51.716;8.790;2022-08-19T06:37:16;19.30;99.90
17252;DHT22;8742;51.716;8.790;2022-08-19T06:39:44;19.30;99.90
17252;DHT22;8742;51.716;8.790;2022-08-19T06:42:12;19.40;99.90
17252;DHT22;8742;51.716;8.790;2022-08-19T06:44:47;19.40;99.90
17252;DHT22;8742;51.716;8.790;2022-08-19T06:47:17;19.40;99.90
17252;DHT22;8742;51.716;8.790;2022-08-19T06:49:45;19.40;99.90
17252;DHT22;8742;51.716;8.790;2022-08-19T06:52:16;19.50;99.90
17252;DHT22;8742;51.716;8.790;2022-08-19T06:54:52;19.50;99.90
17252;DHT22;8742;51.716;8.790;2022-08-19T06:57:19;19.50;99.90
17252;DHT22;8742;51.716;8.790;2022-08-19T06:59:48;19.50;99.90
17252;DHT22;8742;51.716;8.790;2022-08-19T07:04:43;19.50;99.90
17252;DHT22;8742;51.716;8.790;2022-08-19T07:07:14;19.60;99.90
17252;DHT22;8742;51.716;8.790;2022-08-19T07:09:42;19.60;99.90
17252;DHT22;8742;51.716;8.790;2022-08-19T07:12:11;19.60;99.90
17252;DHT22;8742;51.716;8.790;2022-08-19T07:14:40;19.60;99.90
17252;DHT22;8742;51.716;8.790;2022-08-19T07:17:10;19.70;99.90
17252;DHT22;8742;51.716;8.790;2022-08-19T07:19:38;19.70;99.90
17252;DHT22;8742;51.716;8.790;2022-08-19T07:22:07;19.80;99.90
17252;DHT22;8742;51.716;8.790;2022-08-19T07:24:36;19.80;99.90
17252;DHT22;8742;51.716;8.790;2022-08-19T07:27:04;19.90;99.90
17252;DHT22;8742;51.716;8.790;2022-08-19T07:29:33;19.90;99.90
17252;DHT22;8742;51.716;8.790;2022-08-19T07:32:01;20.10;99.90
17252;DHT22;8742;51.716;8.790;2022-08-19T07:34:31;20.30;99.90
17252;DHT22;8742;51.716;8.790;2022-08-19T07:37:00;20.40;99.90
17252;DHT22;8742;51.716;8.790;2022-08-19T07:39:29;20.60;99.90
17252;DHT22;8742;51.716;8.790;2022-08-19T07:41:58;20.80;99.90
17252;DHT22;8742;51.716;8.790;2022-08-19T07:44:25;20.90;99.90
17252;DHT22;8742;51.716;8.790;2022-08-19T07:46:55;21.00;99.90
17252;DHT22;8742;51.716;8.790;2022-08-19T07:49:23;21.10;99.90
17252;DHT22;8742;51.716;8.790;2022-08-19T07:51:53;21.10;99.90
17252;DHT22;8742;51.716;8.790;2022-08-19T07:54:22;21.10;99.90
17252;DHT22;8742;51.716;8.790;2022-08-19T07:56:50;21.20;99.90
17252;DHT22;8742;51.716;8.790;2022-08-19T07:59:18;21.20;99.90
17252;DHT22;8742;51.716;8.790;2022-08-19T08:01:46;21.20;99.90
17252;DHT22;8742;51.716;8.790;2022-08-19T08:04:13;21.20;99.90
17252;DHT22;8742;51.716;8.790;2022-08-19T08:06:59;21.30;99.90
17252;DHT22;8742;51.716;8.790;2022-08-19T08:09:44;21.30;99.90
17252;DHT22;8742;51.716;8.790;2022-08-19T08:12:14;21.30;99.90
17252;DHT22;8742;51.716;8.790;2022-08-19T08:14:45;21.40;99.90
17252;DHT22;8742;51.716;8.790;2022-08-19T08:17:13;21.40;99.90
17252;DHT22;8742;51.716;8.790;2022-08-19T08:25:01;21.60;99.90
17252;DHT22;8742;51.716;8.790;2022-08-19T08:47:19;22.80;99.90
17252;DHT22;8742;51.716;8.790;2022-08-19T08:49:51;22.90;99.90
17252;DHT22;8742;51.716;8.790;2022-08-19T08:52:24;23.10;99.90
17252;DHT22;8742;51.716;8.790;2022-08-19T08:54:54;23.20;99.90
17252;DHT22;8742;51.716;8.790;2022-08-19T08:57:27;23.40;99.90
17252;DHT22;8742;51.716;8.790;2022-08-19T08:59:57;23.60;99.90
17252;DHT22;8742;51.716;8.790;2022-08-19T09:02:25;23.70;99.90
17252;DHT22;8742;51.716;8.790;2022-08-19T09:04:54;23.80;99.90
17252;DHT22;8742;51.716;8.790;2022-08-19T09:07:32;23.80;99.90
17252;DHT22;8742;51.716;8.790;2022-08-19T09:10:09;23.80;99.90
17252;DHT22;8742;51.716;8.790;2022-08-19T09:12:47;24.00;99.90
17252;DHT22;8742;51.716;8.790;2022-08-19T09:15:18;24.00;99.90
17252;DHT22;8742;51.716;8.790;2022-08-19T09:17:49;24.10;99.90
17252;DHT22;8742;51.716;8.790;2022-08-19T09:20:18;24.20;99.90
17252;DHT22;8742;51.716;8.790;2022-08-19T09:22:47;24.30;99.90
17252;DHT22;8742;51.716;8.790;2022-08-19T09:27:43;24.80;99.90
17252;DHT22;8742;51.716;8.790;2022-08-19T09:30:14;25.00;99.90
17252;DHT22;8742;51.716;8.790;2022-08-19T09:32:41;25.20;99.90
17252;DHT22;8742;51.716;8.790;2022-08-19T09:35:09;25.40;99.90
17252;DHT22;8742;51.716;8.790;2022-08-19T09:37:36;25.50;99.90
17252;DHT22;8742;51.716;8.790;2022-08-19T09:40:05;25.70;99.90
17252;DHT22;8742;51.716;8.790;2022-08-19T09:42:33;25.80;99.90
17252;DHT22;8742;51.716;8.790;2022-08-19T09:45:00;25.90;99.90
17252;DHT22;8742;51.716;8.790;2022-08-19T09:47:27;26.00;99.90
17252;DHT22;8742;51.716;8.790;2022-08-19T09:49:54;26.10;99.90
17252;DHT22;8742;51.716;8.790;2022-08-19T09:52:21;26.20;99.90
17252;DHT22;8742;51.716;8.790;2022-08-19T09:54:51;26.30;99.90
17252;DHT22;8742;51.716;8.790;2022-08-19T09:57:20;26.30;99.90
17252;DHT22;8742;51.716;8.790;2022-08-19T09:59:47;26.20;99.90
17252;DHT22;8742;51.716;8.790;2022-08-19T10:02:13;26.10;99.90
17252;DHT22;8742;51.716;8.790;2022-08-19T10:04:40;26.10;99.90
17252;DHT22;8742;51.716;8.790;2022-08-19T10:07:25;26.10;99.90
17252;DHT22;8742;51.716;8.790;2022-08-19T10:09:51;26.30;99.90
17252;DHT22;8742;51.716;8.790;2022-08-19T10:12:20;26.40;99.90
17252;DHT22;8742;51.716;8.790;2022-08-19T10:14:47;26.50;99.90
17252;DHT22;8742;51.716;8.790;2022-08-19T10:17:13;26.40;99.90
17252;DHT22;8742;51.716;8.790;2022-08-19T10:19:40;26.40;99.90
17252;DHT22;8742;51.716;8.790;2022-08-19T10:22:07;26.50;99.90
17252;DHT22;8742;51.716;8.790;2022-08-19T10:24:36;26.50;99.90
17252;DHT22;8742;51.716;8.790;2022-08-19T10:27:04;26.60;99.90
17252;DHT22;8742;51.716;8.790;2022-08-19T10:29:32;26.70;99.90
17252;DHT22;8742;51.716;8.790;2022-08-19T10:32:02;26.70;99.90
17252;DHT22;8742;51.716;8.790;2022-08-19T10:34:30;26.70;99.90
17252;DHT22;8742;51.716;8.790;2022-08-19T10:36:58;26.60;99.90
17252;DHT22;8742;51.716;8.790;2022-08-19T10:39:26;26.70;99.90
17252;DHT22;8742;51.716;8.790;2022-08-19T10:41:54;26.70;99.90
17252;DHT22;8742;51.716;8.790;2022-08-19T10:44:21;26.90;99.90
17252;DHT22;8742;51.716;8.790;2022-08-19T10:46:50;27.00;99.90
17252;DHT22;8742;51.716;8.790;2022-08-19T10:49:18;27.20;99.90
17252;DHT22;8742;51.716;8.790;2022-08-19T10:51:46;27.40;99.90
17252;DHT22;8742;51.716;8.790;2022-08-19T10:54:33;27.50;99.90
17252;DHT22;8742;51.716;8.790;2022-08-19T10:57:17;27.50;99.90
17252;DHT22;8742;51.716;8.790;2022-08-19T10:59:44;27.60;99.90
17252;DHT22;8742;51.716;8.790;2022-08-19T11:19:30;28.60;99.90
17252;DHT22;8742;51.716;8.790;2022-08-19T11:21:57;28.40;99.90
17252;DHT22;8742;51.716;8.790;2022-08-19T11:44:20;28.50;99.90
17252;DHT22;8742;51.716;8.790;2022-08-19T11:46:47;28.70;99.90
17252;DHT22;8742;51.716;8.790;2022-08-19T11:49:14;28.70;99.90
17252;DHT22;8742;51.716;8.790;2022-08-19T11:51:43;28.60;99.90
17252;DHT22;8742;51.716;8.790;2022-08-19T11:54:11;28.50;99.90
17252;DHT22;8742;51.716;8.790;2022-08-19T11:56:39;28.50;99.90
17252;DHT22;8742;51.716;8.790;2022-08-19T11:59:06;28.60;99.90
17252;DHT22;8742;51.716;8.790;2022-08-19T12:01:34;28.70;99.90
17252;DHT22;8742;51.716;8.790;2022-08-19T12:04:01;28.70;99.90
17252;DHT22;8742;51.716;8.790;2022-08-19T12:06:32;28.80;99.90
17252;DHT22;8742;51.716;8.790;2022-08-19T12:09:04;28.80;99.90
17252;DHT22;8742;51.716;8.790;2022-08-19T12:11:32;28.90;99.90
17252;DHT22;8742;51.716;8.790;2022-08-19T12:13:59;29.00;99.90
17252;DHT22;8742;51.716;8.790;2022-08-19T12:21:28;29.30;99.90
17252;DHT22;8742;51.716;8.790;2022-08-19T12:23:56;29.40;99.90
17252;DHT22;8742;51.716;8.790;2022-08-19T12:26:27;29.50;99.90
17252;DHT22;8742;51.716;8.790;2022-08-19T12:28:54;29.70;99.90
17252;DHT22;8742;51.716;8.790;2022-08-19T12:31:21;29.80;99.90
17252;DHT22;8742;51.716;8.790;2022-08-19T12:33:48;29.70;99.90
17252;DHT22;8742;51.716;8.790;2022-08-19T12:36:16;29.70;99.90
17252;DHT22;8742;51.716;8.790;2022-08-19T12:38:44;29.70;99.80
17252;DHT22;8742;51.716;8.790;2022-08-19T12:41:13;29.70;99.20
17252;DHT22;8742;51.716;8.790;2022-08-19T12:43:42;29.70;98.80
17252;DHT22;8742;51.716;8.790;2022-08-19T12:46:10;29.80;98.70
17252;DHT22;8742;51.716;8.790;2022-08-19T12:48:38;29.80;98.40
17252;DHT22;8742;51.716;8.790;2022-08-19T12:51:09;29.90;97.70
17252;DHT22;8742;51.716;8.790;2022-08-19T12:53:36;29.90;96.90
17252;DHT22;8742;51.716;8.790;2022-08-19T12:56:04;29.90;96.80
17252;DHT22;8742;51.716;8.790;2022-08-19T12:58:31;30.00;96.70
17252;DHT22;8742;51.716;8.790;2022-08-19T13:01:06;30.00;96.40
17252;DHT22;8742;51.716;8.790;2022-08-19T13:03:33;30.00;96.60
17252;DHT22;8742;51.716;8.790;2022-08-19T13:06:00;30.10;96.50
17252;DHT22;8742;51.716;8.790;2022-08-19T13:08:27;30.20;95.70
17252;DHT22;8742;51.716;8.790;2022-08-19T13:10:54;30.20;95.90
17252;DHT22;8742;51.716;8.790;2022-08-19T13:13:21;30.10;95.50
17252;DHT22;8742;51.716;8.790;2022-08-19T13:15:48;30.10;95.80
17252;DHT22;8742;51.716;8.790;2022-08-19T13:18:16;30.10;95.50
17252;DHT22;8742;51.716;8.790;2022-08-19T13:20:43;30.20;95.70
17252;DHT22;8742;51.716;8.790;2022-08-19T13:23:10;30.20;95.90
17252;DHT22;8742;51.716;8.790;2022-08-19T13:25:37;30.40;95.50
17252;DHT22;8742;51.716;8.790;2022-08-19T13:28:04;30.50;95.30
17252;DHT22;8742;51.716;8.790;2022-08-19T13:30:32;30.50;95.20
17252;DHT22;8742;51.716;8.790;2022-08-19T13:33:18;30.50;95.10
17252;DHT22;8742;51.716;8.790;2022-08-19T13:35:48;30.50;95.10
17252;DHT22;8742;51.716;8.790;2022-08-19T13:38:18;30.30;94.80
17252;DHT22;8742;51.716;8.790;2022-08-19T13:43:15;29.90;94.50
17252;DHT22;8742;51.716;8.790;2022-08-19T13:45:43;29.70;99.90
17252;DHT22;8742;51.716;8.790;2022-08-19T13:48:10;29.50;94.60
17252;DHT22;8742;51.716;8.790;2022-08-19T13:53:09;29.20;94.60
17252;DHT22;8742;51.716;8.790;2022-08-19T13:55:37;29.00;94.80
17252;DHT22;8742;51.716;8.790;2022-08-19T13:58:05;29.00;94.90
17252;DHT22;8742;51.716;8.790;2022-08-19T14:00:34;29.00;94.80
17252;DHT22;8742;51.716;8.790;2022-08-19T14:03:02;29.00;94.70
17252;DHT22;8742;51.716;8.790;2022-08-19T14:05:30;29.00;94.90
17252;DHT22;8742;51.716;8.790;2022-08-19T14:07:59;28.90;94.80
17252;DHT22;8742;51.716;8.790;2022-08-19T14:10:27;28.90;95.00
17252;DHT22;8742;51.716;8.790;2022-08-19T14:12:57;29.00;94.90
17252;DHT22;8742;51.716;8.790;2022-08-19T14:15:25;29.10;94.80
17252;DHT22;8742;51.716;8.790;2022-08-19T14:17:52;29.10;94.70
17252;DHT22;8742;51.716;8.790;2022-08-19T14:20:20;29.10;94.70
17252;DHT22;8742;51.716;8.790;2022-08-19T14:22:48;29.00;94.60
17252;DHT22;8742;51.716;8.790;2022-08-19T14:25:20;28.90;94.70
17252;DHT22;8742;51.716;8.790;2022-08-19T14:27:48;28.80;94.80
17252;DHT22;8742;51.716;8.790;2022-08-19T14:30:17;28.80;95.00
17252;DHT22;8742;51.716;8.790;2022-08-19T14:32:44;28.70;94.90
17252;DHT22;8742;51.716;8.790;2022-08-19T14:35:14;28.70;94.80
17252;DHT22;8742;51.716;8.790;2022-08-19T14:37:42;28.60;94.90
17252;DHT22;8742;51.716;8.790;2022-08-19T14:40:10;28.70;95.10
17252;DHT22;8742;51.716;8.790;2022-08-19T14:42:39;28.70;94.90
17252;DHT22;8742;51.716;8.790;2022-08-19T14:45:07;28.70;94.70
17252;DHT22;8742;51.716;8.790;2022-08-19T14:47:34;28.80;94.60
17252;DHT22;8742;51.716;8.790;2022-08-19T14:50:02;28.90;94.60
17252;DHT22;8742;51.716;8.790;2022-08-19T14:52:28;29.10;94.80
17252;DHT22;8742;51.716;8.790;2022-08-19T14:54:55;29.20;94.60
17252;DHT22;8742;51.716;8.790;2022-08-19T14:57:22;29.40;94.50
17252;DHT22;8742;51.716;8.790;2022-08-19T14:59:51;29.70;94.30
17252;DHT22;8742;51.716;8.790;2022-08-19T15:02:18;30.00;93.20
17252;DHT22;8742;51.716;8.790;2022-08-19T15:04:45;31.00;93.20
17252;DHT22;8742;51.716;8.790;2022-08-19T15:07:12;31.20;93.50
17252;DHT22;8742;51.716;8.790;2022-08-19T15:09:39;32.00;92.50
17252;DHT22;8742;51.716;8.790;2022-08-19T15:12:07;32.90;91.90
17252;DHT22;8742;51.716;8.790;2022-08-19T15:14:36;33.40;90.70
17252;DHT22;8742;51.716;8.790;2022-08-19T15:17:05;33.30;90.10
17252;DHT22;8742;51.716;8.790;2022-08-19T15:19:32;32.80;90.40
17252;DHT22;8742;51.716;8.790;2022-08-19T15:22:01;32.40;90.30
17252;DHT22;8742;51.716;8.790;2022-08-19T15:24:28;32.00;90.50
17252;DHT22;8742;51.716;8.790;2022-08-19T15:26:55;31.60;90.90
17252;DHT22;8742;51.716;8.790;2022-08-19T15:29:22;31.20;91.00
17252;DHT22;8742;51.716;8.790;2022-08-19T15:31:51;30.70;91.00
17252;DHT22;8742;51.716;8.790;2022-08-19T15:34:22;30.30;91.20
17252;DHT22;8742;51.716;8.790;2022-08-19T15:36:50;30.10;91.50
17252;DHT22;8742;51.716;8.790;2022-08-19T15:39:17;29.90;91.70
17252;DHT22;8742;51.716;8.790;2022-08-19T15:41:45;30.10;92.00
17252;DHT22;8742;51.716;8.790;2022-08-19T15:44:15;30.70;91.50
17252;DHT22;8742;51.716;8.790;2022-08-19T15:46:44;31.00;91.40
17252;DHT22;8742;51.716;8.790;2022-08-19T15:49:13;31.60;91.40
17252;DHT22;8742;51.716;8.790;2022-08-19T15:51:44;31.70;90.30
17252;DHT22;8742;51.716;8.790;2022-08-19T15:54:13;31.50;90.20
17252;DHT22;8742;51.716;8.790;2022-08-19T15:56:40;31.60;91.20
17252;DHT22;8742;51.716;8.790;2022-08-19T15:59:25;31.80;91.10
17252;DHT22;8742;51.716;8.790;2022-08-19T16:02:10;31.70;90.50
17252;DHT22;8742;51.716;8.790;2022-08-19T16:04:55;31.30;90.00
17252;DHT22;8742;51.716;8.790;2022-08-19T16:07:41;30.90;89.90
17252;DHT22;8742;51.716;8.790;2022-08-19T16:10:08;30.50;90.10
17252;DHT22;8742;51.716;8.790;2022-08-19T16:12:35;30.10;90.00
17252;DHT22;8742;51.716;8.790;2022-08-19T16:15:04;29.80;90.30
17252;DHT22;8742;51.716;8.790;2022-08-19T16:17:31;29.50;90.30
17252;DHT22;8742;51.716;8.790;2022-08-19T16:20:00;29.30;90.40
17252;DHT22;8742;51.716;8.790;2022-08-19T16:22:28;29.10;90.60
17252;DHT22;8742;51.716;8.790;2022-08-19T16:24:57;29.00;90.70
17252;DHT22;8742;51.716;8.790;2022-08-19T16:27:25;28.80;90.60
17252;DHT22;8742;51.716;8.790;2022-08-19T16:29:52;28.70;90.60
17252;DHT22;8742;51.716;8.790;2022-08-19T16:32:19;28.40;90.60
17252;DHT22;8742;51.716;8.790;2022-08-19T16:34:46;28.30;90.60
17252;DHT22;8742;51.716;8.790;2022-08-19T16:37:14;28.20;90.90
17252;DHT22;8742;51.716;8.790;2022-08-19T16:39:41;28.10;91.00
17252;DHT22;8742;51.716;8.790;2022-08-19T16:42:10;28.00;92.60
17252;DHT22;8742;51.716;8.790;2022-08-19T16:44:41;27.90;93.60
17252;DHT22;8742;51.716;8.790;2022-08-19T16:47:09;27.80;95.30
17252;DHT22;8742;51.716;8.790;2022-08-19T16:49:37;27.80;94.70
17252;DHT22;8742;51.716;8.790;2022-08-19T16:54:34;27.70;90.80
17252;DHT22;8742;51.716;8.790;2022-08-19T16:57:02;27.60;91.10
17252;DHT22;8742;51.716;8.790;2022-08-19T16:59:33;27.60;91.10
17252;DHT22;8742;51.716;8.790;2022-08-19T17:02:00;27.60;91.10
17252;DHT22;8742;51.716;8.790;2022-08-19T17:04:27;27.60;91.00
17252;DHT22;8742;51.716;8.790;2022-08-19T17:06:53;27.50;91.00
17252;DHT22;8742;51.716;8.790;2022-08-19T17:09:21;27.40;91.10
17252;DHT22;8742;51.716;8.790;2022-08-19T17:11:47;27.40;91.30
17252;DHT22;8742;51.716;8.790;2022-08-19T17:14:14;27.30;94.70
17252;DHT22;8742;51.716;8.790;2022-08-19T17:16:44;27.20;91.20
17252;DHT22;8742;51.716;8.790;2022-08-19T17:19:11;27.20;99.90
17252;DHT22;8742;51.716;8.790;2022-08-19T17:21:38;27.10;96.10